Monterey, CA

5:24 AM PDT on August 27, 2016 (GMT -0700)
Monterey Peninsula | | Change Station

Elev 253 ft 36.59 °N, 121.84 °W | Updated 30 minutes ago

Overcast
Overcast
60 °F
Feels Like 60 °F
N
0
Wind Variable Wind from North

Today
High -- | Low -- °F
--% Chance of Precip.
Yesterday
High -- | Low -- °F
Precip. -- in
Pressure 30.02 in
Visibility 10.0 miles
Clouds Overcast 1500 ft
Dew Point 53 °F
Humidity 78%
Rainfall 0.00 in
Snow Depth Not available.
6:35 AM 7:41 PM
Waning Crescent, 25% visible
METAR KMRY 271154Z AUTO 00000KT 10SM OVC015 16/12 A2999 RMK AO2 SLP165 T01560117 10167 20156 58001
Pressure 30.02 in
Visibility 10.0 miles
Clouds Overcast 1500 ft
Dew Point 53 °F
Humidity 78%
Rainfall 0.00 in
Snow Depth Not available.
6:35 AM 7:41 PM
Waning Crescent, 25% visible
METAR KMRY 271154Z AUTO 00000KT 10SM OVC015 16/12 A2999 RMK AO2 SLP165 T01560117 10167 20156 58001

10-Day Weather Forecast

Almanac

Astronomy

Aug. 27, 2016 Rise Set
Actual Time
Civil Twilight
Nautical Twilight
Astronomical Twilight
Moon
Length of Visible Light
Length of Day
Tomorrow will be .
, % of the Moon is Illuminated

Today's Extremes

State Highs State Lows

Community

WunderPhotos

Upload Photos

1,935,325 photos uploaded!

WunderBlog® & News

Nearby

Air Quality

  Air Quality AQ Index Pollutant
Not available.

Snow Depth

Station Depth Elevation

Earthquake Activity

City Distance Mag. Time & Date
Minimum magnitude displayed is 2.5.

Coastal Water Temperatures

Place Temperature

Stations

Nearby Weather Stations

Station Location Temp. Windchill Dew Point Humidity Wind Precip. Elev Updated Type
                   

Watches & Warnings

There are currently no watches in effect.